createdAt,value
2017-01-18T00:00:53.082Z,0
2017-01-18T00:02:03.428Z,0
2017-01-18T00:03:14.164Z,0
2017-01-18T00:04:24.935Z,0
2017-01-18T00:05:35.688Z,0
2017-01-18T00:06:46.035Z,0
2017-01-18T00:07:56.777Z,0
2017-01-18T00:09:07.146Z,0
2017-01-18T00:10:17.901Z,0
2017-01-18T00:11:28.669Z,0
2017-01-18T00:12:39.414Z,0
2017-01-18T00:13:50.142Z,0
2017-01-18T00:14:59.714Z,0
2017-01-18T00:16:10.069Z,0
2017-01-18T00:17:20.028Z,0
2017-01-18T00:18:29.983Z,0
2017-01-18T00:19:39.929Z,0
2017-01-18T00:20:50.666Z,0
2017-01-18T00:22:01.409Z,0
2017-01-18T00:23:12.151Z,0
2017-01-18T00:24:22.902Z,0
2017-01-18T00:25:33.684Z,0
2017-01-18T00:26:44.420Z,0
2017-01-18T00:27:55.151Z,0
2017-01-18T00:29:05.103Z,0
2017-01-18T00:30:15.846Z,0
2017-01-18T00:31:26.188Z,0
2017-01-18T00:32:36.554Z,0
2017-01-18T00:33:47.296Z,0
2017-01-18T00:34:58.026Z,0
2017-01-18T00:36:08.795Z,0
2017-01-18T00:37:19.142Z,0
2017-01-18T00:38:29.868Z,0
2017-01-18T00:39:40.638Z,0
2017-01-18T00:40:51.000Z,0
2017-01-18T00:42:00.958Z,0
2017-01-18T00:43:11.300Z,0
2017-01-18T00:44:22.052Z,0
2017-01-18T00:45:32.408Z,0
2017-01-18T00:46:43.161Z,0
2017-01-18T00:47:53.915Z,0
2017-01-18T00:49:04.269Z,0
2017-01-18T00:50:14.626Z,0
2017-01-18T00:51:25.372Z,0
2017-01-18T00:52:35.719Z,0
2017-01-18T00:53:45.697Z,0
2017-01-18T00:54:56.045Z,0
2017-01-18T00:56:05.998Z,0
2017-01-18T00:57:15.996Z,0
2017-01-18T00:58:25.940Z,0
2017-01-18T00:59:36.694Z,0
2017-01-18T01:00:47.426Z,0
2017-01-18T01:01:57.773Z,0
2017-01-18T01:03:08.129Z,0
2017-01-18T01:04:18.521Z,0
2017-01-18T01:05:29.257Z,0
2017-01-18T01:06:39.995Z,0
2017-01-18T01:07:50.329Z,0
2017-01-18T01:09:01.066Z,0
2017-01-18T01:10:11.815Z,0
2017-01-18T01:11:22.566Z,0
2017-01-18T01:12:33.309Z,0
2017-01-18T01:13:43.659Z,0
2017-01-18T01:14:54.391Z,0
2017-01-18T01:16:05.128Z,0
2017-01-18T01:17:15.465Z,0
2017-01-18T01:18:25.411Z,0
2017-01-18T01:19:35.768Z,0
2017-01-18T01:20:46.115Z,0
2017-01-18T01:21:56.862Z,0
2017-01-18T01:23:06.419Z,0
2017-01-18T01:24:16.762Z,0
2017-01-18T01:25:27.103Z,0
2017-01-18T01:26:37.839Z,0
2017-01-18T01:27:48.176Z,0
2017-01-18T01:28:58.134Z,0
2017-01-18T01:30:08.064Z,0
2017-01-18T01:31:18.410Z,0
2017-01-18T01:32:29.148Z,0
2017-01-18T01:33:39.929Z,0
2017-01-18T01:34:49.871Z,0
2017-01-18T01:36:00.609Z,0
2017-01-18T01:37:11.344Z,0
2017-01-18T01:38:21.295Z,0
2017-01-18T01:39:31.239Z,0
2017-01-18T01:40:41.564Z,0
2017-01-18T01:41:51.526Z,0
2017-01-18T01:43:02.268Z,0
2017-01-18T01:44:12.614Z,0
2017-01-18T01:45:23.352Z,0
2017-01-18T01:46:33.680Z,0
2017-01-18T01:47:44.023Z,0
2017-01-18T01:48:54.770Z,0
2017-01-18T01:50:05.118Z,0
2017-01-18T01:51:15.060Z,0
2017-01-18T01:52:25.017Z,0
2017-01-18T01:53:35.757Z,0
2017-01-18T01:54:46.111Z,0
2017-01-18T01:55:56.886Z,0
2017-01-18T01:57:06.832Z,0
2017-01-18T01:58:17.571Z,0
2017-01-18T01:59:27.926Z,0
2017-01-18T02:00:38.689Z,0
2017-01-18T02:01:49.041Z,0
2017-01-18T02:02:59.787Z,0
2017-01-18T02:04:10.519Z,0
2017-01-18T02:05:21.265Z,0
2017-01-18T02:06:31.616Z,0
2017-01-18T02:07:42.357Z,0
2017-01-18T02:08:52.309Z,0
2017-01-18T02:10:02.649Z,0
2017-01-18T02:11:13.017Z,0
2017-01-18T02:12:23.379Z,0
2017-01-18T02:13:33.713Z,0
2017-01-18T02:14:44.069Z,0
2017-01-18T02:15:54.440Z,0
2017-01-18T02:17:04.802Z,0
2017-01-18T02:18:15.531Z,0
2017-01-18T02:19:25.875Z,0
2017-01-18T02:20:36.236Z,0
2017-01-18T02:21:46.997Z,0
2017-01-18T02:22:57.725Z,0
2017-01-18T02:24:08.463Z,0
2017-01-18T02:25:18.407Z,0
2017-01-18T02:26:27.950Z,0
2017-01-18T02:27:38.686Z,0
2017-01-18T02:28:49.029Z,0
2017-01-18T02:29:58.989Z,0
2017-01-18T02:31:09.757Z,0
2017-01-18T02:32:19.720Z,0
2017-01-18T02:33:29.665Z,0
2017-01-18T02:34:39.622Z,0
2017-01-18T02:35:49.973Z,0
2017-01-18T02:36:59.535Z,0
2017-01-18T02:38:10.324Z,0
2017-01-18T02:39:21.076Z,0
2017-01-18T02:40:31.435Z,0
2017-01-18T02:41:41.811Z,0
2017-01-18T02:42:52.578Z,0
2017-01-18T02:44:03.306Z,0
2017-01-18T02:45:13.651Z,0
2017-01-18T02:46:24.405Z,0
2017-01-18T02:47:34.756Z,0
2017-01-18T02:48:45.102Z,0
2017-01-18T02:49:55.848Z,0
2017-01-18T02:51:06.595Z,0
2017-01-18T02:52:16.532Z,0
2017-01-18T02:53:26.873Z,0
2017-01-18T02:54:36.438Z,0
2017-01-18T02:55:46.789Z,0
2017-01-18T02:56:56.750Z,0
2017-01-18T02:58:07.076Z,0
2017-01-18T02:59:17.847Z,0
2017-01-18T03:00:27.798Z,0
2017-01-18T03:01:38.565Z,0
2017-01-18T03:32:57.295Z,0
2017-01-18T03:34:08.031Z,0
2017-01-18T03:35:18.783Z,0
2017-01-18T03:36:28.343Z,0
2017-01-18T03:37:39.067Z,0
2017-01-18T03:38:49.404Z,0
2017-01-18T03:39:59.744Z,0
2017-01-18T03:41:10.473Z,0
2017-01-18T03:42:21.194Z,0
2017-01-18T03:43:31.930Z,0
2017-01-18T03:44:42.307Z,0
2017-01-18T03:45:52.264Z,0
2017-01-18T03:47:02.605Z,0
2017-01-18T03:48:13.366Z,0
2017-01-18T03:49:24.093Z,0
2017-01-18T03:50:34.442Z,0
2017-01-18T03:51:45.191Z,0
2017-01-18T03:52:54.744Z,0
2017-01-18T03:54:05.112Z,0
2017-01-18T03:55:14.666Z,0
2017-01-18T03:56:25.387Z,0
2017-01-18T03:57:36.125Z,0
2017-01-18T03:58:46.493Z,0
2017-01-18T03:59:56.434Z,0
2017-01-18T04:01:07.173Z,0
2017-01-18T04:02:17.913Z,0
2017-01-18T04:03:28.249Z,0
2017-01-18T04:04:38.990Z,0
2017-01-18T04:05:48.944Z,0
2017-01-18T04:06:59.288Z,0
2017-01-18T04:08:10.037Z,0
2017-01-18T04:09:20.782Z,0
2017-01-18T04:10:31.136Z,0
2017-01-18T04:11:41.871Z,0
2017-01-18T04:12:52.213Z,0
2017-01-18T04:14:03.200Z,0
2017-01-18T04:15:13.547Z,0
2017-01-18T04:16:23.511Z,0
2017-01-18T04:17:33.866Z,0
2017-01-18T04:18:44.606Z,0
2017-01-18T04:19:54.958Z,0
2017-01-18T04:21:05.713Z,0
2017-01-18T04:22:15.670Z,0
2017-01-18T04:23:25.623Z,0
2017-01-18T04:24:35.958Z,0
2017-01-18T04:25:45.514Z,0
2017-01-18T04:26:56.252Z,0
2017-01-18T04:28:06.986Z,0
2017-01-18T04:29:17.324Z,0
2017-01-18T04:30:27.666Z,0
2017-01-18T04:31:38.008Z,0
2017-01-18T04:32:48.020Z,0
2017-01-18T04:33:58.754Z,0
2017-01-18T04:35:09.551Z,0
2017-01-18T04:36:19.920Z,0
2017-01-18T04:37:30.665Z,0
2017-01-18T04:38:41.391Z,0
2017-01-18T04:39:51.388Z,0
2017-01-18T04:41:02.156Z,0
2017-01-18T04:42:12.891Z,0
2017-01-18T04:43:23.247Z,0
2017-01-18T04:44:33.593Z,0
2017-01-18T04:45:43.936Z,0
2017-01-18T04:46:54.673Z,0
2017-01-18T04:48:05.025Z,0
2017-01-18T04:49:15.762Z,0
2017-01-18T04:50:26.494Z,0
2017-01-18T04:51:37.249Z,0
2017-01-18T04:52:47.592Z,0
2017-01-18T04:53:58.333Z,0
2017-01-18T04:55:09.080Z,0
2017-01-18T04:56:19.418Z,0
2017-01-18T04:57:29.757Z,0
2017-01-18T04:58:39.710Z,0
2017-01-18T04:59:50.052Z,0
2017-01-18T05:01:00.027Z,0
2017-01-18T05:02:10.769Z,0
2017-01-18T05:03:21.501Z,0
2017-01-18T05:04:32.237Z,0
2017-01-18T05:05:42.966Z,0
2017-01-18T05:06:53.316Z,0
2017-01-18T05:08:03.659Z,0
2017-01-18T05:09:13.995Z,0
2017-01-18T05:10:24.336Z,0
2017-01-18T05:11:34.672Z,0
2017-01-18T05:12:45.405Z,0
2017-01-18T05:13:56.141Z,0
2017-01-18T05:15:06.870Z,0
2017-01-18T05:16:17.211Z,0
2017-01-18T05:17:27.944Z,0
2017-01-18T05:18:38.681Z,0
2017-01-18T05:19:49.415Z,0
2017-01-18T05:21:00.160Z,0
2017-01-18T05:22:10.508Z,0
2017-01-18T05:23:20.475Z,0
2017-01-18T05:24:30.821Z,0
2017-01-18T05:25:41.557Z,0
2017-01-18T05:26:51.902Z,0
2017-01-18T05:28:01.851Z,0
2017-01-18T05:29:12.598Z,0
2017-01-18T05:30:23.335Z,0
2017-01-18T05:31:33.676Z,0
2017-01-18T05:32:44.029Z,0
2017-01-18T05:33:53.990Z,0
2017-01-18T05:35:03.949Z,0
2017-01-18T05:36:14.298Z,0
2017-01-18T05:37:24.655Z,0
2017-01-18T05:38:35.398Z,0
2017-01-18T05:39:45.749Z,0
2017-01-18T05:40:56.487Z,0
2017-01-18T05:42:07.227Z,0
2017-01-18T05:43:17.570Z,0
2017-01-18T05:44:28.318Z,0
2017-01-18T05:45:39.098Z,0
2017-01-18T05:46:49.846Z,0
2017-01-18T05:48:00.202Z,0
2017-01-18T05:49:10.933Z,0
2017-01-18T05:50:20.900Z,0
2017-01-18T05:51:31.643Z,0
2017-01-18T05:52:42.421Z,0
2017-01-18T05:53:52.761Z,0
2017-01-18T05:55:03.502Z,0
2017-01-18T05:56:14.233Z,0
2017-01-18T05:57:24.971Z,0
2017-01-18T05:58:35.702Z,0
2017-01-18T05:59:46.044Z,0
2017-01-18T06:00:56.772Z,0
2017-01-18T06:02:07.106Z,0
2017-01-18T06:03:17.054Z,0
2017-01-18T06:04:27.396Z,0
2017-01-18T06:05:37.762Z,0
2017-01-18T06:06:48.528Z,0
2017-01-18T06:07:59.262Z,0
2017-01-18T06:09:10.002Z,0
2017-01-18T06:10:20.357Z,0
2017-01-18T06:11:31.093Z,0
2017-01-18T06:12:41.845Z,0
2017-01-18T06:13:52.589Z,0
2017-01-18T06:15:03.362Z,0
2017-01-18T06:16:14.102Z,0
2017-01-18T06:17:24.835Z,0
2017-01-18T06:18:35.175Z,0
2017-01-18T06:19:45.918Z,0
2017-01-18T06:20:56.674Z,0
2017-01-18T06:22:07.428Z,0
2017-01-18T06:23:17.764Z,0
2017-01-18T06:24:27.716Z,0
2017-01-18T06:25:37.672Z,0
2017-01-18T06:26:48.409Z,0
2017-01-18T06:27:59.146Z,0
2017-01-18T06:29:09.894Z,0
2017-01-18T06:30:20.629Z,0
2017-01-18T06:31:31.367Z,0
2017-01-18T06:32:42.099Z,0
2017-01-18T06:33:52.455Z,0
2017-01-18T06:35:03.201Z,0
2017-01-18T06:36:13.548Z,5
2017-01-18T06:37:24.280Z,5
2017-01-18T06:38:35.027Z,5
2017-01-18T06:39:45.776Z,5
2017-01-18T06:40:56.527Z,5
2017-01-18T06:42:06.867Z,5
2017-01-18T06:43:17.615Z,5
2017-01-18T06:44:28.357Z,5
2017-01-18T06:45:39.105Z,10
2017-01-18T06:46:49.451Z,10
2017-01-18T06:48:00.201Z,10
2017-01-18T06:49:10.148Z,10
2017-01-18T06:50:20.896Z,10
2017-01-18T06:51:30.853Z,15
2017-01-18T06:52:40.807Z,15
2017-01-18T06:53:51.579Z,15
2017-01-18T06:55:02.328Z,15
2017-01-18T06:56:13.079Z,15
2017-01-18T06:57:23.040Z,20
2017-01-18T06:58:33.382Z,20
2017-01-18T06:59:43.354Z,20
2017-01-18T07:00:54.100Z,20
2017-01-18T07:02:04.847Z,25
2017-01-18T07:03:14.790Z,25
2017-01-18T07:04:25.536Z,25
2017-01-18T07:05:35.874Z,25
2017-01-18T07:06:46.234Z,25
2017-01-18T07:07:56.980Z,30
2017-01-18T07:09:07.753Z,30
2017-01-18T07:10:18.502Z,30
2017-01-18T07:11:29.256Z,35
2017-01-18T07:12:39.984Z,35
2017-01-18T07:13:50.334Z,35
2017-01-18T07:15:00.687Z,35
2017-01-18T07:16:10.662Z,40
2017-01-18T07:17:21.006Z,40
2017-01-18T07:18:31.746Z,40
2017-01-18T07:19:42.493Z,40
2017-01-18T07:20:53.219Z,45
2017-01-18T07:22:03.987Z,45
2017-01-18T07:23:14.349Z,40
2017-01-18T07:24:25.091Z,45
2017-01-18T07:25:35.453Z,45
2017-01-18T07:26:45.814Z,45
2017-01-18T07:27:56.183Z,50
2017-01-18T07:29:06.522Z,50
2017-01-18T07:30:16.868Z,50
2017-01-18T07:31:26.842Z,50
2017-01-18T07:32:37.207Z,55
2017-01-18T07:33:47.945Z,55
2017-01-18T07:34:57.887Z,55
2017-01-18T07:36:08.638Z,60
2017-01-18T07:37:19.385Z,60
2017-01-18T07:38:30.149Z,60
2017-01-18T07:39:40.893Z,60
2017-01-18T07:40:51.230Z,65
2017-01-18T07:42:01.978Z,65
2017-01-18T07:43:12.738Z,65
2017-01-18T07:44:23.095Z,65
2017-01-18T07:45:33.433Z,70
2017-01-18T07:46:43.389Z,70
2017-01-18T07:47:54.136Z,70
2017-01-18T07:49:04.883Z,75
2017-01-18T07:50:15.634Z,75
2017-01-18T07:51:25.986Z,75
2017-01-18T07:52:36.332Z,75
2017-01-18T07:53:47.074Z,75
2017-01-18T07:54:57.827Z,80
2017-01-18T07:56:08.174Z,80
2017-01-18T07:57:18.532Z,80
2017-01-18T07:58:28.905Z,80
2017-01-18T07:59:39.888Z,85
2017-01-18T08:00:50.639Z,85
2017-01-18T08:02:00.976Z,85
2017-01-18T08:03:10.918Z,85
2017-01-18T08:04:20.473Z,85
2017-01-18T08:05:30.817Z,90
2017-01-18T08:06:41.173Z,90
2017-01-18T08:07:51.522Z,90
2017-01-18T08:09:02.267Z,90
2017-01-18T08:10:13.015Z,90
2017-01-18T08:11:22.964Z,90
2017-01-18T08:12:33.307Z,90
2017-01-18T08:13:43.649Z,95
2017-01-18T08:14:54.379Z,90
2017-01-18T08:16:04.347Z,95
2017-01-18T08:17:15.075Z,95
2017-01-18T08:18:25.427Z,95
2017-01-18T08:19:35.382Z,95
2017-01-18T08:20:45.337Z,95
2017-01-18T08:21:56.086Z,100
2017-01-18T08:23:06.828Z,105
2017-01-18T08:24:17.163Z,105
2017-01-18T08:25:27.115Z,95
2017-01-18T08:26:37.463Z,105
2017-01-18T08:27:48.208Z,105
2017-01-18T08:28:58.554Z,105
2017-01-18T08:30:08.122Z,90
2017-01-18T08:31:18.465Z,100
2017-01-18T08:32:28.407Z,110
2017-01-18T08:33:39.153Z,100
2017-01-18T08:34:49.894Z,90
2017-01-18T08:36:00.632Z,105
2017-01-18T08:37:10.573Z,105
2017-01-18T08:38:20.925Z,105
2017-01-18T08:39:31.691Z,115
2017-01-18T08:40:42.428Z,110
2017-01-18T08:41:53.183Z,115
2017-01-18T08:43:03.136Z,115
2017-01-18T08:44:13.085Z,115
2017-01-18T08:45:23.430Z,110
2017-01-18T08:46:34.176Z,125
2017-01-18T08:47:44.518Z,120
2017-01-18T08:48:54.475Z,120
2017-01-18T08:50:05.222Z,95
2017-01-18T08:51:14.806Z,115
2017-01-18T08:52:25.147Z,125
2017-01-18T08:53:35.493Z,105
2017-01-18T08:54:46.239Z,110
2017-01-18T08:55:56.597Z,105
2017-01-18T08:57:07.341Z,105
2017-01-18T08:58:17.287Z,110
2017-01-18T08:59:27.622Z,125
2017-01-18T09:00:37.978Z,115
2017-01-18T09:01:47.934Z,110
2017-01-18T09:02:57.881Z,115
2017-01-18T09:04:08.616Z,105
2017-01-18T09:05:18.559Z,115
2017-01-18T09:06:28.501Z,120
2017-01-18T09:07:38.062Z,120
2017-01-18T09:08:48.413Z,110
2017-01-18T09:09:59.153Z,120
2017-01-18T09:11:09.925Z,110
2017-01-18T09:12:20.669Z,115
2017-01-18T09:13:31.027Z,105
2017-01-18T09:14:41.828Z,140
2017-01-18T09:15:52.561Z,140
2017-01-18T09:17:03.306Z,115
2017-01-18T09:18:13.887Z,140
2017-01-18T09:19:24.241Z,135
2017-01-18T09:20:33.835Z,145
2017-01-18T09:21:44.184Z,140
2017-01-18T09:22:54.524Z,140
2017-01-18T09:24:05.276Z,135
2017-01-18T09:25:16.021Z,145
2017-01-18T09:26:26.375Z,135
2017-01-18T09:27:37.118Z,140
2017-01-18T09:28:47.878Z,140
2017-01-18T09:29:58.610Z,145
2017-01-18T09:31:08.964Z,150
2017-01-18T09:32:18.919Z,145
2017-01-18T09:33:29.265Z,145
2017-01-18T09:34:40.012Z,145
2017-01-18T09:35:50.758Z,145
2017-01-18T09:37:01.504Z,165
2017-01-18T09:38:11.871Z,125
2017-01-18T09:39:22.599Z,155
2017-01-18T09:40:33.340Z,165
2017-01-18T09:41:44.077Z,165
2017-01-18T09:42:54.433Z,165
2017-01-18T09:44:05.189Z,165
2017-01-18T09:45:15.546Z,145
2017-01-18T09:46:25.897Z,135
2017-01-18T09:47:35.855Z,135
2017-01-18T09:48:46.221Z,130
2017-01-18T09:49:56.953Z,135
2017-01-18T09:51:07.708Z,155
2017-01-18T09:52:17.259Z,130
2017-01-18T09:53:27.217Z,125
2017-01-18T09:54:39.557Z,125
2017-01-18T09:55:52.640Z,115
2017-01-18T09:57:02.752Z,120
2017-01-18T09:58:13.497Z,135
2017-01-18T09:59:23.441Z,145
2017-01-18T10:00:34.178Z,135
2017-01-18T10:01:44.899Z,135
2017-01-18T10:02:55.251Z,175
2017-01-18T10:04:05.991Z,140
2017-01-18T10:05:15.180Z,135
2017-01-18T10:06:26.130Z,135
2017-01-18T10:07:36.638Z,135
2017-01-18T10:08:46.988Z,155
2017-01-18T10:09:57.736Z,180
2017-01-18T10:11:06.908Z,145
2017-01-18T10:12:17.696Z,160
2017-01-18T10:13:28.045Z,130
2017-01-18T10:14:38.383Z,175
2017-01-18T10:15:48.717Z,165
2017-01-18T10:16:58.677Z,145
2017-01-18T10:18:08.653Z,135
2017-01-18T10:19:19.000Z,170
2017-01-18T10:20:29.753Z,180
2017-01-18T10:21:40.484Z,160
2017-01-18T10:22:50.824Z,185
2017-01-18T10:24:01.570Z,155
2017-01-18T10:25:11.914Z,190
2017-01-18T10:26:22.262Z,195
2017-01-18T10:27:32.608Z,205
2017-01-18T10:28:43.348Z,215
2017-01-18T10:29:53.700Z,215
2017-01-18T10:31:04.109Z,195
2017-01-18T10:32:14.855Z,140
2017-01-18T10:33:25.609Z,115
2017-01-18T10:34:36.397Z,110
2017-01-18T10:35:47.374Z,110
2017-01-18T10:36:57.331Z,110
2017-01-18T10:38:08.079Z,115
2017-01-18T10:39:18.823Z,110
2017-01-18T10:40:28.774Z,110
2017-01-18T10:41:39.592Z,105
2017-01-18T10:42:49.568Z,105
2017-01-18T10:43:59.527Z,110
2017-01-18T10:45:10.278Z,110
2017-01-18T10:46:21.025Z,115
2017-01-18T10:47:31.381Z,125
2017-01-18T10:48:42.122Z,135
2017-01-18T10:49:52.471Z,140
2017-01-18T10:51:03.234Z,195
2017-01-18T10:52:13.604Z,195
2017-01-18T10:53:23.549Z,175
2017-01-18T10:54:33.906Z,115
2017-01-18T10:55:44.650Z,105
2017-01-18T10:56:55.410Z,100
2017-01-18T10:58:06.143Z,105
2017-01-18T10:59:16.511Z,120
2017-01-18T11:00:26.875Z,130
2017-01-18T11:01:37.233Z,135
2017-01-18T11:02:47.989Z,140
2017-01-18T11:03:58.351Z,145
2017-01-18T11:05:09.098Z,135
2017-01-18T11:06:19.839Z,150
2017-01-18T11:07:30.177Z,160
2017-01-18T11:08:40.519Z,115
2017-01-18T11:09:50.870Z,105
2017-01-18T11:11:00.827Z,100
2017-01-18T11:12:11.178Z,100
2017-01-18T11:13:21.916Z,105
2017-01-18T11:14:32.266Z,115
2017-01-18T11:15:42.203Z,120
2017-01-18T11:16:52.556Z,125
2017-01-18T11:18:03.308Z,130
2017-01-18T11:19:14.079Z,135
2017-01-18T11:20:24.430Z,200
2017-01-18T11:21:34.792Z,195
2017-01-18T11:22:45.164Z,210
2017-01-18T11:23:55.122Z,155
2017-01-18T11:25:05.470Z,155
2017-01-18T11:26:16.199Z,155
2017-01-18T11:27:26.161Z,150
2017-01-18T11:28:36.111Z,195
2017-01-18T11:29:46.065Z,135
2017-01-18T11:30:56.396Z,120
2017-01-18T11:32:06.758Z,120
2017-01-18T11:33:17.484Z,125
2017-01-18T11:34:28.260Z,120
2017-01-18T11:35:39.003Z,115
2017-01-18T11:36:48.967Z,110
2017-01-18T11:37:59.746Z,110
2017-01-18T11:39:10.138Z,110
2017-01-18T11:40:20.485Z,110
2017-01-18T11:41:30.851Z,110
2017-01-18T11:42:41.845Z,110
2017-01-18T11:43:52.580Z,115
2017-01-18T11:45:02.941Z,115
2017-01-18T11:46:13.308Z,120
2017-01-18T11:47:24.050Z,125
2017-01-18T11:48:34.411Z,120
2017-01-18T11:49:44.748Z,120
2017-01-18T11:50:55.101Z,120
2017-01-18T11:52:05.488Z,120
2017-01-18T11:53:16.315Z,120
2017-01-18T11:54:26.756Z,120
2017-01-18T11:55:37.141Z,120
2017-01-18T11:56:47.888Z,120
2017-01-18T11:57:58.226Z,115
2017-01-18T11:59:07.797Z,120
2017-01-18T12:00:17.758Z,120
2017-01-18T12:01:28.106Z,120
2017-01-18T12:02:38.846Z,120
2017-01-18T12:03:49.604Z,120
2017-01-18T12:05:00.371Z,115
2017-01-18T12:06:10.735Z,110
2017-01-18T12:07:20.708Z,105
2017-01-18T12:08:31.107Z,100
2017-01-18T12:09:41.455Z,105
2017-01-18T12:10:52.462Z,105
2017-01-18T12:12:03.191Z,115
2017-01-18T12:13:13.554Z,120
2017-01-18T12:14:23.501Z,130
2017-01-18T12:15:33.849Z,130
2017-01-18T12:16:44.434Z,135
2017-01-18T12:17:54.789Z,205
2017-01-18T12:19:05.141Z,215
2017-01-18T12:20:15.094Z,180
2017-01-18T12:21:25.446Z,130
2017-01-18T12:22:35.401Z,120
2017-01-18T12:23:46.146Z,105
2017-01-18T12:24:56.510Z,110
2017-01-18T12:26:07.272Z,95
2017-01-18T12:27:17.637Z,95
2017-01-18T12:28:28.567Z,95
2017-01-18T12:29:39.090Z,95
2017-01-18T12:30:49.875Z,90
2017-01-18T12:32:01.359Z,90
2017-01-18T12:33:12.828Z,90
2017-01-18T12:34:24.112Z,90
2017-01-18T12:35:35.276Z,85
2017-01-18T12:36:46.189Z,85
2017-01-18T12:37:57.844Z,85
2017-01-18T12:39:09.630Z,85
2017-01-18T12:40:21.367Z,85
2017-01-18T12:41:32.143Z,85
2017-01-18T12:42:42.110Z,90
2017-01-18T12:43:52.868Z,100
2017-01-18T12:45:02.429Z,100
2017-01-18T12:46:12.785Z,105
2017-01-18T12:47:23.563Z,110
2017-01-18T12:48:33.907Z,110
2017-01-18T12:49:44.666Z,110
2017-01-18T12:50:55.443Z,160
2017-01-18T12:52:05.812Z,95
2017-01-18T12:53:16.588Z,90
2017-01-18T12:54:27.363Z,85
2017-01-18T12:55:38.146Z,85
2017-01-18T12:56:48.521Z,85
2017-01-18T12:58:00.434Z,85
2017-01-18T12:59:11.835Z,85
2017-01-18T13:00:22.631Z,85
2017-01-18T13:01:32.978Z,85
2017-01-18T13:02:43.740Z,85
2017-01-18T13:03:54.087Z,85
2017-01-18T13:05:04.059Z,85
2017-01-18T13:06:14.399Z,80
2017-01-18T13:07:24.352Z,80
2017-01-18T13:08:35.093Z,80
2017-01-18T13:09:45.040Z,80
2017-01-18T13:10:55.787Z,80
2017-01-18T13:12:05.743Z,80
2017-01-18T13:13:16.095Z,85
2017-01-18T13:14:26.870Z,90
2017-01-18T13:15:37.223Z,90
2017-01-18T13:16:47.958Z,90
2017-01-18T13:17:57.913Z,95
2017-01-18T13:19:08.654Z,100
2017-01-18T13:20:19.390Z,100
2017-01-18T13:21:30.127Z,100
2017-01-18T13:22:39.699Z,100
2017-01-18T13:23:50.090Z,95
2017-01-18T13:25:01.054Z,105
2017-01-18T13:26:11.405Z,90
2017-01-18T13:27:22.151Z,85
2017-01-18T13:28:32.102Z,80
2017-01-18T13:29:42.459Z,80
2017-01-18T13:30:52.805Z,75
2017-01-18T13:32:03.542Z,75
2017-01-18T13:33:13.529Z,70
2017-01-18T13:34:23.490Z,70
2017-01-18T13:35:34.227Z,65
2017-01-18T13:36:44.584Z,65
2017-01-18T13:37:54.932Z,65
2017-01-18T13:39:04.885Z,65
2017-01-18T13:40:15.634Z,65
2017-01-18T13:41:26.413Z,70
2017-01-18T13:42:37.158Z,70
2017-01-18T13:43:47.529Z,70
2017-01-18T13:44:57.874Z,70
2017-01-18T13:46:08.232Z,65
2017-01-18T13:47:19.011Z,70
2017-01-18T13:48:29.752Z,65
2017-01-18T13:49:40.112Z,65
2017-01-18T13:50:50.056Z,70
2017-01-18T13:52:00.408Z,70
2017-01-18T13:53:11.174Z,70
2017-01-18T13:54:21.531Z,70
2017-01-18T13:55:31.907Z,70
2017-01-18T13:56:41.867Z,70
2017-01-18T13:57:52.618Z,65
2017-01-18T13:59:02.976Z,65
2017-01-18T14:00:12.948Z,65
2017-01-18T14:01:23.700Z,70
2017-01-18T14:02:34.046Z,70
2017-01-18T14:03:44.389Z,70
2017-01-18T14:04:55.124Z,80
2017-01-18T14:06:05.471Z,75
2017-01-18T14:07:15.823Z,70
2017-01-18T14:08:25.792Z,65
2017-01-18T14:09:37.063Z,75
2017-01-18T14:10:48.050Z,75
2017-01-18T14:11:58.402Z,70
2017-01-18T14:13:09.153Z,70
2017-01-18T14:14:19.499Z,60
2017-01-18T14:15:29.470Z,60
2017-01-18T14:16:40.212Z,60
2017-01-18T14:17:50.585Z,60
2017-01-18T14:19:01.342Z,55
2017-01-18T14:20:11.705Z,50
2017-01-18T14:21:22.063Z,50
2017-01-18T14:22:32.010Z,50
2017-01-18T14:23:42.754Z,50
2017-01-18T14:24:53.509Z,50
2017-01-18T14:26:03.469Z,50
2017-01-18T14:27:14.221Z,50
2017-01-18T14:28:24.948Z,50
2017-01-18T14:29:35.319Z,45
2017-01-18T14:30:46.080Z,45
2017-01-18T14:31:56.425Z,45
2017-01-18T14:33:07.188Z,40
2017-01-18T14:34:17.940Z,45
2017-01-18T14:35:27.897Z,45
2017-01-18T14:36:38.224Z,45
2017-01-18T14:37:48.581Z,45
2017-01-18T14:38:58.945Z,40
2017-01-18T14:40:09.340Z,35
2017-01-18T14:41:19.706Z,35
2017-01-18T14:42:30.081Z,35
2017-01-18T14:43:40.028Z,35
2017-01-18T14:44:50.792Z,35
2017-01-18T14:46:01.187Z,35
2017-01-18T14:47:11.556Z,35
2017-01-18T14:48:21.890Z,35
2017-01-18T14:49:32.262Z,35
2017-01-18T14:50:42.608Z,35
2017-01-18T14:51:52.552Z,30
2017-01-18T14:53:02.911Z,30
2017-01-18T14:54:13.267Z,30
2017-01-18T14:55:23.652Z,30
2017-01-18T14:56:34.392Z,30
2017-01-18T14:57:44.729Z,25
2017-01-18T14:58:55.480Z,25
2017-01-18T15:00:06.212Z,25
2017-01-18T15:01:16.574Z,25
2017-01-18T15:02:26.529Z,20
2017-01-18T15:03:37.277Z,20
2017-01-18T15:04:48.024Z,20
2017-01-18T15:05:58.385Z,20
2017-01-18T15:07:08.723Z,20
2017-01-18T15:08:18.297Z,15
2017-01-18T15:09:29.051Z,15
2017-01-18T15:10:39.402Z,15
2017-01-18T15:11:49.758Z,15
2017-01-18T15:13:00.515Z,15
2017-01-18T15:14:10.461Z,10
2017-01-18T15:15:21.206Z,10
2017-01-18T15:16:31.936Z,10
2017-01-18T15:17:41.926Z,10
2017-01-18T15:18:51.881Z,10
2017-01-18T15:20:02.631Z,10
2017-01-18T15:21:13.374Z,10
2017-01-18T15:22:24.111Z,10
2017-01-18T15:23:34.097Z,5
2017-01-18T15:24:44.838Z,5
2017-01-18T15:25:55.581Z,5
2017-01-18T15:27:06.306Z,5
2017-01-18T15:28:16.659Z,5
2017-01-18T15:29:27.001Z,5
2017-01-18T15:30:37.367Z,5
2017-01-18T15:31:47.722Z,5
2017-01-18T15:32:58.058Z,0
2017-01-18T15:34:07.617Z,0
2017-01-18T15:35:18.364Z,0
2017-01-18T15:36:28.321Z,0
2017-01-18T15:37:38.682Z,0
2017-01-18T15:38:49.459Z,0
2017-01-18T15:40:00.206Z,0
2017-01-18T15:41:10.952Z,0
2017-01-18T15:42:21.309Z,0
2017-01-18T15:43:31.691Z,0
2017-01-18T15:44:42.472Z,0
2017-01-18T15:45:53.221Z,0
2017-01-18T15:47:02.258Z,0
2017-01-18T15:48:12.999Z,0
2017-01-18T15:49:23.335Z,0
2017-01-18T15:50:34.086Z,0
2017-01-18T15:51:44.422Z,0
2017-01-18T15:52:55.184Z,0
2017-01-18T15:54:05.521Z,0
2017-01-18T15:55:15.868Z,0
2017-01-18T15:56:26.464Z,0
2017-01-18T15:57:36.817Z,0
2017-01-18T15:58:47.578Z,0
2017-01-18T15:59:58.350Z,0
2017-01-18T16:01:08.699Z,0
2017-01-18T16:02:19.454Z,0
2017-01-18T16:03:30.210Z,0
2017-01-18T16:04:40.576Z,0
2017-01-18T16:05:50.540Z,0
2017-01-18T16:07:00.880Z,0
2017-01-18T16:08:11.234Z,0
2017-01-18T16:09:21.583Z,0
2017-01-18T16:10:31.536Z,0
2017-01-18T16:11:41.500Z,0
2017-01-18T16:12:51.847Z,0
2017-01-18T16:14:02.594Z,0
2017-01-18T16:15:12.926Z,0
2017-01-18T16:16:22.507Z,0
2017-01-18T16:17:33.239Z,0
2017-01-18T16:18:43.173Z,0
2017-01-18T16:19:53.920Z,0
2017-01-18T16:21:03.885Z,0
2017-01-18T16:22:14.657Z,0
2017-01-18T16:23:25.437Z,0
2017-01-18T16:24:35.772Z,0
2017-01-18T16:25:46.138Z,0
2017-01-18T16:26:56.113Z,0
2017-01-18T16:28:06.853Z,0
2017-01-18T16:29:17.208Z,0
2017-01-18T16:30:27.170Z,0
2017-01-18T16:31:37.512Z,0
2017-01-18T16:32:48.249Z,0
2017-01-18T16:33:58.984Z,0
2017-01-18T16:35:09.359Z,0
2017-01-18T16:36:19.733Z,0
2017-01-18T16:37:30.080Z,0
2017-01-18T16:38:40.422Z,0
2017-01-18T16:39:51.144Z,0
2017-01-18T16:41:01.876Z,0
2017-01-18T16:42:12.619Z,0
2017-01-18T16:43:23.350Z,0
2017-01-18T16:44:34.094Z,0
2017-01-18T16:45:44.443Z,0
2017-01-18T16:46:55.182Z,0
2017-01-18T16:48:05.532Z,0
2017-01-18T16:49:16.284Z,0
2017-01-18T16:50:26.649Z,0
2017-01-18T16:51:37.395Z,0
2017-01-18T16:52:47.746Z,0
2017-01-18T16:53:58.101Z,0
2017-01-18T16:55:08.867Z,0
2017-01-18T16:56:19.209Z,0
2017-01-18T16:57:29.168Z,0
2017-01-18T16:58:39.913Z,0
2017-01-18T16:59:50.262Z,0
2017-01-18T17:01:00.606Z,0
2017-01-18T17:02:11.362Z,0
2017-01-18T17:03:21.706Z,0
2017-01-18T17:04:32.067Z,0
2017-01-18T17:05:42.810Z,0
2017-01-18T17:06:53.570Z,0
2017-01-18T17:08:03.927Z,0
2017-01-18T17:09:14.663Z,0
2017-01-18T17:10:24.611Z,0
2017-01-18T17:11:34.977Z,0
2017-01-18T17:12:45.729Z,0
2017-01-18T17:13:56.082Z,0
2017-01-18T17:15:06.453Z,0
2017-01-18T17:16:16.830Z,0
2017-01-18T17:17:27.192Z,0
2017-01-18T17:18:37.540Z,0
2017-01-18T17:19:48.287Z,0
2017-01-18T17:20:59.043Z,0
2017-01-18T17:22:09.408Z,0
2017-01-18T17:23:19.384Z,0